Time;durP1;ratioP1;P1;durP2;ratioP2;P2;SDS_P1;SDS_P2;PMS_P1;PMS_P2;Temp;Humidity;BMP_temperature;BMP_pressure;BME280_temperature;BME280_humidity;BME280_pressure;Samples;Min_cycle;Max_cycle;Signal;HPM_P1;HPM_P2
2023/04/30 00:00:28;;;;;;;9.30;8.70;;;15.00;31.40;;;;;;5068415;28;20545;-54
2023/04/30 00:02:54;;;;;;;10.33;9.83;;;15.00;31.30;;;;;;5068094;28;20183;-53
2023/04/30 00:05:20;;;;;;;9.60;9.10;;;15.00;31.30;;;;;;5069166;28;20193;-51
2023/04/30 00:07:45;;;;;;;11.20;10.60;;;15.00;31.60;;;;;;5069093;28;20486;-52
2023/04/30 00:10:11;;;;;;;10.40;9.70;;;14.90;31.30;;;;;;5067332;28;20216;-53
2023/04/30 00:12:37;;;;;;;11.03;10.33;;;14.90;31.30;;;;;;5067905;28;20206;-54
2023/04/30 00:15:03;;;;;;;10.00;9.33;;;14.90;31.30;;;;;;5066556;28;20179;-59
2023/04/30 00:17:29;;;;;;;10.90;10.20;;;14.80;31.40;;;;;;5069779;28;20430;-54
2023/04/30 00:19:55;;;;;;;8.93;8.43;;;14.80;31.40;;;;;;5067310;28;20174;-53
2023/04/30 00:22:20;;;;;;;10.50;9.80;;;14.80;31.30;;;;;;5068021;28;20239;-53
2023/04/30 00:24:46;;;;;;;10.40;9.80;;;14.80;31.30;;;;;;5064993;28;20421;-54
2023/04/30 00:27:11;;;;;;;9.17;8.67;;;14.80;31.50;;;;;;5068493;28;20186;-50
2023/04/30 00:29:37;;;;;;;10.60;9.90;;;14.80;31.80;;;;;;5066387;28;20182;-54
2023/04/30 00:32:03;;;;;;;11.20;10.60;;;14.80;31.50;;;;;;5065280;28;20537;-52
2023/04/30 00:34:29;;;;;;;11.50;10.80;;;14.80;31.50;;;;;;5067221;28;20186;-53
2023/04/30 00:36:54;;;;;;;10.90;10.10;;;14.80;31.50;;;;;;5085844;28;20179;-54
2023/04/30 00:39:20;;;;;;;9.87;9.40;;;14.80;31.60;;;;;;5068037;28;20182;-53
2023/04/30 00:41:46;;;;;;;10.03;9.33;;;14.80;31.70;;;;;;5050373;28;20639;-54
2023/04/30 00:44:12;;;;;;;10.63;10.03;;;14.80;31.60;;;;;;5067546;28;20433;-55
2023/04/30 00:46:37;;;;;;;10.83;10.13;;;14.80;31.50;;;;;;5066513;28;20240;-53
2023/04/30 00:49:03;;;;;;;10.27;9.50;;;14.80;31.60;;;;;;5085080;28;20171;-53
2023/04/30 00:51:31;;;;;;;9.90;9.30;;;14.80;31.40;;;;;;5084059;28;20179;-50
2023/04/30 00:54:01;;;;;;;10.87;10.27;;;14.80;31.10;;;;;;5066012;28;20461;-53
2023/04/30 00:56:29;;;;;;;11.00;10.30;;;14.80;31.30;;;;;;5067378;28;20498;-49
2023/04/30 00:58:56;;;;;;;10.80;10.00;;;14.70;31.60;;;;;;5085779;28;20415;-52
2023/04/30 01:01:29;;;;;;;10.10;9.60;;;14.70;31.70;;;;;;5066305;28;20819;-50
2023/04/30 01:03:55;;;;;;;10.57;9.97;;;14.60;31.50;;;;;;5065890;28;20812;-51
2023/04/30 01:06:20;;;;;;;11.50;10.90;;;14.60;31.70;;;;;;5064589;28;20415;-51
2023/04/30 01:08:47;;;;;;;11.90;11.10;;;14.70;31.70;;;;;;5066584;28;20170;-53
2023/04/30 01:11:38;;;;;;;10.83;10.03;;;14.60;31.80;;;;;;5065576;28;20620;-49
2023/04/30 01:14:17;;;;;;;9.80;9.20;;;14.60;31.80;;;;;;5064739;28;20455;-52
2023/04/30 01:17:04;;;;;;;12.67;11.87;;;14.60;31.50;;;;;;5063351;28;20773;-53
2023/04/30 01:19:56;;;;;;;12.43;11.73;;;14.70;31.10;;;;;;5064317;28;20439;-50
2023/04/30 01:22:25;;;;;;;11.40;10.60;;;14.60;31.30;;;;;;5063913;28;20421;-53
2023/04/30 01:25:12;;;;;;;11.03;10.33;;;14.70;30.90;;;;;;5063323;28;20513;-50
2023/04/30 01:28:09;;;;;;;12.00;11.27;;;14.60;31.20;;;;;;5064101;28;21077;-53
2023/04/30 01:30:35;;;;;;;12.80;12.20;;;14.60;31.40;;;;;;5062694;28;20420;-50
2023/04/30 01:33:02;;;;;;;12.40;11.70;;;14.60;31.30;;;;;;5063284;28;20535;-53
2023/04/30 01:35:41;;;;;;;13.00;12.10;;;14.60;31.60;;;;;;5063247;28;20467;-53
2023/04/30 01:38:19;;;;;;;11.80;11.10;;;14.60;31.70;;;;;;5064230;28;20408;-51
2023/04/30 01:40:56;;;;;;;12.13;11.13;;;14.60;31.40;;;;;;5063345;28;20427;-52
2023/04/30 01:43:37;;;;;;;12.70;11.80;;;14.70;31.30;;;;;;5066963;28;20961;-50
2023/04/30 01:46:23;;;;;;;13.93;13.03;;;14.70;31.20;;;;;;5067457;28;20416;-52
2023/04/30 01:49:16;;;;;;;13.43;12.53;;;14.70;31.30;;;;;;5067033;28;20416;-50
2023/04/30 01:51:45;;;;;;;11.20;10.50;;;14.70;31.20;;;;;;5066767;28;20417;-50
2023/04/30 01:54:37;;;;;;;11.27;10.37;;;14.70;31.10;;;;;;5065602;28;20466;-53
2023/04/30 01:57:06;;;;;;;13.93;13.07;;;14.50;31.30;;;;;;5066241;28;20415;-52
2023/04/30 01:59:37;;;;;;;13.47;12.60;;;14.50;31.70;;;;;;5065762;28;20456;-59
2023/04/30 02:02:03;;;;;;;12.10;11.10;;;14.50;31.40;;;;;;5067369;28;21049;-59
2023/04/30 02:04:28;;;;;;;12.90;12.00;;;14.50;30.80;;;;;;5063216;28;20412;-59
2023/04/30 02:06:54;;;;;;;11.27;10.57;;;14.50;31.00;;;;;;5066852;28;20927;-60
2023/04/30 02:09:22;;;;;;;12.93;12.13;;;14.50;31.00;;;;;;5066523;28;20443;-59
2023/04/30 02:11:48;;;;;;;12.20;11.07;;;14.60;30.80;;;;;;5067127;28;20293;-59
2023/04/30 02:14:14;;;;;;;12.10;11.20;;;14.60;30.40;;;;;;5065165;28;20539;-59
2023/04/30 02:16:40;;;;;;;13.40;12.60;;;14.60;30.60;;;;;;5065180;28;20220;-59
2023/04/30 02:19:05;;;;;;;15.13;13.77;;;14.50;30.40;;;;;;5067067;28;20662;-60
2023/04/30 02:21:31;;;;;;;13.83;12.87;;;14.50;30.30;;;;;;5066583;28;20538;-59
2023/04/30 02:23:56;;;;;;;14.13;13.23;;;14.60;30.50;;;;;;5065068;28;20509;-59
2023/04/30 02:26:22;;;;;;;14.50;13.57;;;14.50;30.40;;;;;;5065128;28;20273;-59
2023/04/30 02:28:48;;;;;;;15.13;14.00;;;14.50;30.20;;;;;;5066968;28;20186;-59
2023/04/30 02:31:13;;;;;;;13.17;12.10;;;14.50;30.00;;;;;;5064541;28;20171;-59
2023/04/30 02:33:39;;;;;;;13.57;12.67;;;14.40;30.80;;;;;;5067478;28;20302;-59
2023/04/30 02:36:05;;;;;;;14.30;13.40;;;14.30;31.00;;;;;;5065505;28;20658;-59
2023/04/30 02:38:30;;;;;;;14.97;13.87;;;14.20;31.10;;;;;;5066169;28;20189;-59
2023/04/30 02:40:56;;;;;;;15.73;14.73;;;14.10;31.70;;;;;;5064849;28;20175;-59
2023/04/30 02:43:21;;;;;;;14.43;13.53;;;14.10;31.90;;;;;;5064860;28;20182;-58
2023/04/30 02:45:47;;;;;;;13.00;12.20;;;14.20;31.80;;;;;;5066210;28;20179;-59
2023/04/30 02:48:13;;;;;;;16.97;15.47;;;14.20;31.40;;;;;;5063122;28;20189;-59
2023/04/30 02:50:38;;;;;;;15.37;14.07;;;14.30;31.30;;;;;;5062908;28;20174;-60
2023/04/30 02:53:04;;;;;;;15.93;14.90;;;14.30;31.10;;;;;;5063937;28;20298;-59
2023/04/30 02:55:30;;;;;;;15.80;14.80;;;14.40;31.10;;;;;;5060324;28;20175;-59
2023/04/30 02:57:56;;;;;;;16.13;15.13;;;14.30;30.80;;;;;;5064360;28;20167;-59
2023/04/30 03:00:22;;;;;;;14.80;13.97;;;14.30;31.50;;;;;;5066110;28;20417;-60
2023/04/30 03:02:47;;;;;;;14.47;13.60;;;14.30;31.40;;;;;;5060961;28;20549;-59
2023/04/30 03:05:14;;;;;;;14.60;13.70;;;14.30;31.20;;;;;;5066875;28;20689;-60
2023/04/30 03:07:40;;;;;;;14.53;13.57;;;14.30;30.80;;;;;;5061705;28;20189;-60
2023/04/30 03:10:06;;;;;;;14.60;13.70;;;14.40;30.90;;;;;;5062276;28;20441;-59
2023/04/30 03:12:32;;;;;;;15.83;14.83;;;14.30;30.70;;;;;;5061861;28;20755;-59
2023/04/30 03:14:57;;;;;;;16.00;14.90;;;14.40;30.70;;;;;;5064175;28;21238;-59
2023/04/30 03:17:23;;;;;;;14.77;13.77;;;14.40;30.70;;;;;;5064006;28;20182;-59
2023/04/30 03:19:49;;;;;;;16.30;15.20;;;14.40;30.80;;;;;;5062733;28;20274;-59
2023/04/30 03:22:18;;;;;;;15.50;14.40;;;14.30;30.80;;;;;;5063335;28;20182;-59
2023/04/30 03:24:44;;;;;;;16.40;15.40;;;14.30;30.70;;;;;;5063300;28;20429;-59
2023/04/30 03:27:09;;;;;;;15.90;14.90;;;14.30;30.90;;;;;;5064019;28;20486;-59
2023/04/30 03:29:35;;;;;;;15.30;14.20;;;14.40;31.10;;;;;;5065257;28;20417;-59
2023/04/30 03:32:01;;;;;;;14.80;13.80;;;14.40;30.90;;;;;;5063798;28;20174;-53
2023/04/30 03:34:26;;;;;;;15.30;14.30;;;14.40;30.90;;;;;;5065528;28;20170;-52
2023/04/30 03:36:52;;;;;;;16.40;15.40;;;14.40;31.20;;;;;;5065791;28;20525;-54
2023/04/30 03:39:17;;;;;;;15.67;14.67;;;14.30;31.30;;;;;;5068710;28;20182;-51
2023/04/30 03:41:43;;;;;;;16.73;15.63;;;14.30;31.40;;;;;;5066901;28;20181;-51
2023/04/30 03:44:14;;;;;;;16.77;15.57;;;14.30;31.40;;;;;;5066115;28;20185;-51
2023/04/30 03:46:43;;;;;;;15.83;14.73;;;14.30;31.30;;;;;;5068027;28;20178;-49
2023/04/30 03:49:09;;;;;;;16.13;14.93;;;14.30;31.40;;;;;;5068406;28;20424;-51
2023/04/30 03:51:38;;;;;;;15.63;14.60;;;14.20;31.40;;;;;;5068586;28;20420;-51
2023/04/30 03:54:05;;;;;;;16.20;15.20;;;14.20;31.60;;;;;;5071101;28;20822;-51
2023/04/30 03:56:32;;;;;;;15.13;14.13;;;14.20;31.60;;;;;;5070445;28;20401;-52
2023/04/30 03:58:57;;;;;;;16.57;15.37;;;14.30;31.80;;;;;;5069544;28;20773;-51
2023/04/30 04:01:23;;;;;;;16.13;15.00;;;14.20;31.60;;;;;;5068557;28;20416;-50
2023/04/30 04:03:49;;;;;;;16.07;15.10;;;14.20;31.80;;;;;;5070473;28;20193;-54
2023/04/30 04:06:14;;;;;;;15.70;14.70;;;14.20;31.90;;;;;;5071939;28;20198;-51
2023/04/30 04:08:42;;;;;;;15.30;14.37;;;14.20;31.70;;;;;;5073019;28;20182;-54
2023/04/30 04:11:09;;;;;;;15.23;14.33;;;14.20;31.80;;;;;;5071042;28;20198;-54
2023/04/30 04:13:34;;;;;;;16.50;15.37;;;14.10;32.10;;;;;;5073764;28;20545;-52
2023/04/30 04:16:00;;;;;;;16.70;15.57;;;14.10;32.50;;;;;;5091657;28;20437;-51
2023/04/30 04:18:25;;;;;;;16.87;15.67;;;14.10;32.30;;;;;;5073606;28;20271;-60
2023/04/30 04:20:51;;;;;;;16.13;15.03;;;14.10;31.90;;;;;;5073514;28;20179;-51
2023/04/30 04:23:17;;;;;;;15.43;14.53;;;14.20;31.90;;;;;;5072968;28;20175;-54
2023/04/30 04:25:43;;;;;;;15.03;14.13;;;14.20;31.80;;;;;;5074358;28;20635;-54
2023/04/30 04:28:09;;;;;;;16.27;15.17;;;14.20;31.90;;;;;;5072653;28;20604;-51
2023/04/30 04:30:35;;;;;;;17.70;16.60;;;14.20;31.70;;;;;;5074170;28;20851;-51
2023/04/30 04:33:01;;;;;;;16.57;15.50;;;14.10;32.40;;;;;;5072696;28;20544;-49
2023/04/30 04:35:27;;;;;;;15.73;14.63;;;14.10;32.40;;;;;;5074199;28;20839;-54
2023/04/30 04:37:52;;;;;;;14.33;13.43;;;14.10;32.30;;;;;;5074191;28;20171;-50
2023/04/30 04:40:18;;;;;;;15.80;14.70;;;14.20;32.10;;;;;;5073400;28;20265;-51
2023/04/30 04:42:43;;;;;;;15.60;14.40;;;14.20;31.90;;;;;;5073564;28;20306;-51
2023/04/30 04:45:09;;;;;;;16.27;15.27;;;14.30;31.70;;;;;;5074212;28;20178;-50
2023/04/30 04:47:36;;;;;;;15.93;14.90;;;14.30;31.40;;;;;;5074063;28;20554;-53
2023/04/30 04:50:02;;;;;;;16.13;15.13;;;14.20;31.70;;;;;;5070610;28;20423;-52
2023/04/30 04:52:28;;;;;;;15.57;14.63;;;14.30;31.80;;;;;;5070481;28;20448;-52
2023/04/30 04:54:53;;;;;;;17.03;16.03;;;14.30;31.50;;;;;;5072438;28;20469;-53
2023/04/30 04:57:19;;;;;;;16.00;15.00;;;14.30;32.30;;;;;;5071891;28;20265;-55
2023/04/30 04:59:45;;;;;;;16.10;15.13;;;14.30;31.70;;;;;;5073622;28;20174;-52
2023/04/30 05:02:10;;;;;;;15.00;14.10;;;14.30;31.70;;;;;;5073258;28;20650;-54
2023/04/30 05:04:36;;;;;;;15.40;14.40;;;14.30;31.70;;;;;;5072117;28;20269;-54
2023/04/30 05:07:02;;;;;;;15.47;14.57;;;14.30;32.80;;;;;;5072974;28;20251;-50
2023/04/30 05:09:28;;;;;;;14.33;13.53;;;14.30;32.30;;;;;;5072925;28;20194;-53
2023/04/30 05:11:53;;;;;;;16.03;14.97;;;14.40;32.00;;;;;;5072331;28;20491;-56
2023/04/30 05:14:20;;;;;;;15.17;14.17;;;14.40;31.40;;;;;;5072109;28;20207;-57
2023/04/30 05:16:45;;;;;;;15.60;14.70;;;14.40;31.10;;;;;;5073526;28;20174;-57
2023/04/30 05:19:11;;;;;;;15.97;14.97;;;14.40;30.80;;;;;;5077668;28;20421;-57
2023/04/30 05:21:36;;;;;;;16.53;15.33;;;14.40;30.50;;;;;;5076003;28;20557;-57
2023/04/30 05:24:03;;;;;;;15.83;14.83;;;14.40;30.40;;;;;;5073712;28;20239;-57
2023/04/30 05:26:28;;;;;;;15.90;15.00;;;14.40;30.40;;;;;;5077927;28;20639;-57
2023/04/30 05:28:54;;;;;;;15.30;14.30;;;14.40;30.50;;;;;;5077574;28;20419;-57
2023/04/30 05:31:19;;;;;;;15.60;14.40;;;14.40;30.70;;;;;;5076264;28;20178;-57
2023/04/30 05:33:45;;;;;;;15.13;14.23;;;14.30;30.50;;;;;;5076700;28;20221;-57
2023/04/30 05:36:11;;;;;;;15.00;13.90;;;14.40;30.50;;;;;;5076197;28;20666;-57
2023/04/30 05:38:36;;;;;;;14.57;13.67;;;14.40;31.30;;;;;;5074541;28;20170;-54
2023/04/30 05:41:02;;;;;;;14.23;13.33;;;14.40;31.50;;;;;;5075806;28;20182;-55
2023/04/30 05:43:27;;;;;;;15.53;14.50;;;14.40;32.40;;;;;;5077318;28;20202;-55
2023/04/30 05:45:53;;;;;;;14.87;13.77;;;14.40;31.60;;;;;;5076038;28;20204;-55
2023/04/30 05:48:19;;;;;;;15.40;14.30;;;14.40;31.00;;;;;;5075918;28;20175;-54
2023/04/30 05:50:44;;;;;;;15.40;14.30;;;14.50;30.70;;;;;;5077292;28;20635;-54
2023/04/30 05:53:10;;;;;;;15.40;14.50;;;14.50;30.70;;;;;;5076669;28;20351;-53
2023/04/30 05:55:35;;;;;;;15.60;14.60;;;14.50;31.00;;;;;;5075973;28;20182;-55
2023/04/30 05:58:01;;;;;;;15.30;14.33;;;14.50;30.40;;;;;;5073769;28;20335;-53
2023/04/30 06:00:27;;;;;;;15.30;14.30;;;14.50;31.40;;;;;;5076387;28;20163;-55
2023/04/30 06:02:52;;;;;;;15.83;14.93;;;14.50;30.30;;;;;;5071248;28;20210;-55
2023/04/30 06:05:18;;;;;;;16.77;15.67;;;14.50;30.70;;;;;;5075445;28;20182;-54
2023/04/30 06:07:44;;;;;;;16.10;15.00;;;14.50;30.00;;;;;;5076191;28;20251;-55
2023/04/30 06:10:11;;;;;;;16.20;15.20;;;14.50;29.90;;;;;;5075377;28;20573;-51
2023/04/30 06:12:38;;;;;;;14.80;13.90;;;14.30;30.40;;;;;;5074654;28;20248;-55
2023/04/30 06:15:05;;;;;;;15.70;14.70;;;14.10;30.80;;;;;;5075287;28;20920;-54
2023/04/30 06:17:31;;;;;;;17.57;16.57;;;14.00;31.40;;;;;;5075198;28;20963;-54
2023/04/30 06:19:59;;;;;;;16.13;15.13;;;13.90;31.20;;;;;;5075585;28;20444;-52
2023/04/30 06:22:25;;;;;;;15.53;14.63;;;13.80;32.60;;;;;;5075852;28;20181;-59
2023/04/30 06:24:51;;;;;;;17.83;16.70;;;13.70;32.60;;;;;;5075357;28;20408;-62
2023/04/30 06:27:16;;;;;;;16.30;15.27;;;13.80;33.30;;;;;;5074017;28;20417;-61
2023/04/30 06:29:42;;;;;;;16.77;15.73;;;13.90;31.80;;;;;;5071510;28;20257;-62
2023/04/30 06:32:08;;;;;;;15.33;14.03;;;13.80;31.70;;;;;;5071927;28;20247;-62
2023/04/30 06:34:33;;;;;;;15.57;14.67;;;13.90;31.80;;;;;;5074693;28;20177;-55
2023/04/30 06:36:59;;;;;;;15.80;14.80;;;13.90;31.40;;;;;;5075930;28;20177;-53
2023/04/30 06:39:25;;;;;;;16.60;15.60;;;13.90;31.80;;;;;;5075966;28;20257;-54
2023/04/30 06:41:51;;;;;;;15.50;14.60;;;14.00;31.60;;;;;;5075239;28;20409;-52
2023/04/30 06:44:17;;;;;;;15.33;14.33;;;14.00;31.00;;;;;;5074218;28;20631;-51
2023/04/30 06:46:43;;;;;;;16.87;15.77;;;14.10;31.20;;;;;;5090893;28;20182;-53
2023/04/30 06:49:09;;;;;;;16.93;15.57;;;14.20;31.00;;;;;;5087569;28;20457;-54
2023/04/30 06:51:34;;;;;;;15.80;14.80;;;14.20;30.40;;;;;;5066503;28;20244;-54
2023/04/30 06:54:00;;;;;;;15.90;14.77;;;14.30;30.10;;;;;;5055627;28;20698;-53
2023/04/30 06:56:26;;;;;;;14.87;14.00;;;14.40;29.90;;;;;;5055681;28;20286;-53
2023/04/30 06:58:51;;;;;;;15.70;14.70;;;14.40;29.90;;;;;;5055651;28;20179;-52
2023/04/30 07:01:17;;;;;;;14.40;13.50;;;14.40;29.70;;;;;;5072949;28;20168;-54
2023/04/30 07:03:43;;;;;;;15.77;14.57;;;14.50;29.60;;;;;;5055337;28;20187;-54
2023/04/30 07:06:09;;;;;;;17.57;16.47;;;14.30;29.20;;;;;;5056598;28;20266;-61
2023/04/30 07:08:34;;;;;;;14.80;13.80;;;14.30;30.40;;;;;;5062524;28;20183;-53
2023/04/30 07:11:00;;;;;;;15.60;14.50;;;14.40;29.70;;;;;;5065512;28;20444;-56
2023/04/30 07:13:26;;;;;;;16.47;15.10;;;14.40;29.40;;;;;;5086962;28;20206;-54
2023/04/30 07:15:51;;;;;;;14.90;14.00;;;14.30;29.40;;;;;;5089253;28;20177;-54
2023/04/30 07:18:17;;;;;;;14.73;13.90;;;14.30;29.80;;;;;;5055177;28;20628;-55
2023/04/30 07:20:42;;;;;;;14.30;13.50;;;14.30;29.80;;;;;;5055377;28;20214;-54
2023/04/30 07:23:08;;;;;;;15.77;14.80;;;14.20;29.70;;;;;;5054146;28;20207;-55
2023/04/30 07:25:34;;;;;;;16.70;15.80;;;14.30;29.70;;;;;;5055425;28;20278;-55
2023/04/30 07:27:59;;;;;;;15.47;14.67;;;14.40;29.80;;;;;;5073421;28;20183;-62
2023/04/30 07:30:25;;;;;;;15.40;14.20;;;14.40;28.60;;;;;;5055603;28;20171;-61
2023/04/30 07:32:51;;;;;;;14.70;13.70;;;14.50;28.60;;;;;;5054971;28;20206;-60
2023/04/30 07:35:16;;;;;;;14.60;13.77;;;14.50;29.00;;;;;;5056233;28;20171;-61
2023/04/30 07:37:42;;;;;;;14.37;13.57;;;14.50;28.40;;;;;;5087904;28;20174;-60
2023/04/30 07:40:11;;;;;;;14.60;13.80;;;14.40;28.30;;;;;;5074748;28;20184;-60
2023/04/30 07:42:39;;;;;;;15.37;14.37;;;14.50;28.40;;;;;;5074378;28;20408;-61
2023/04/30 07:45:05;;;;;;;14.67;13.67;;;14.60;28.00;;;;;;5074837;28;20512;-60
2023/04/30 07:47:31;;;;;;;14.07;13.17;;;14.50;28.50;;;;;;5074858;28;20499;-61
2023/04/30 07:49:57;;;;;;;14.57;13.77;;;14.60;27.70;;;;;;5074728;28;20477;-61
2023/04/30 07:52:22;;;;;;;15.03;14.23;;;14.70;27.80;;;;;;5073668;28;20519;-61
2023/04/30 07:54:48;;;;;;;14.80;13.90;;;14.70;27.60;;;;;;5092939;28;20405;-55
2023/04/30 07:57:14;;;;;;;15.17;14.37;;;14.70;27.80;;;;;;5074679;28;20266;-54
2023/04/30 07:59:40;;;;;;;14.33;13.57;;;14.80;27.10;;;;;;5074414;28;20912;-54
2023/04/30 08:02:07;;;;;;;13.13;12.33;;;14.90;26.50;;;;;;5074113;28;20265;-54
2023/04/30 08:04:33;;;;;;;12.20;11.60;;;14.90;26.50;;;;;;5072634;28;20186;-54
2023/04/30 08:07:00;;;;;;;12.20;11.50;;;15.00;26.60;;;;;;5072475;28;20415;-54
2023/04/30 08:09:25;;;;;;;12.27;11.57;;;15.00;25.80;;;;;;5073026;28;20186;-54
2023/04/30 08:11:52;;;;;;;12.13;11.43;;;15.10;25.00;;;;;;5073541;28;20427;-55
2023/04/30 08:14:18;;;;;;;13.70;12.80;;;15.20;25.70;;;;;;5073470;28;20202;-54
2023/04/30 08:16:43;;;;;;;13.20;12.40;;;15.30;25.80;;;;;;5073591;28;20409;-54
2023/04/30 08:19:09;;;;;;;13.50;12.50;;;15.30;25.80;;;;;;5074379;28;20417;-56
2023/04/30 08:21:35;;;;;;;12.17;11.47;;;15.30;25.80;;;;;;5073398;28;20170;-55
2023/04/30 08:24:01;;;;;;;12.27;11.47;;;15.40;25.30;;;;;;5073622;28;20236;-54
2023/04/30 08:26:26;;;;;;;12.20;11.50;;;15.50;24.50;;;;;;5072539;28;20454;-53
2023/04/30 08:28:52;;;;;;;11.80;11.17;;;15.60;24.70;;;;;;5073370;28;20417;-53
2023/04/30 08:31:18;;;;;;;11.70;11.10;;;15.60;24.00;;;;;;5072785;28;20220;-53
2023/04/30 08:33:43;;;;;;;11.47;10.80;;;15.60;23.50;;;;;;5073941;28;20213;-52
2023/04/30 08:36:09;;;;;;;12.27;11.37;;;15.70;23.80;;;;;;5072955;28;20170;-53
2023/04/30 08:38:34;;;;;;;12.30;11.50;;;15.60;24.10;;;;;;5072214;28;20194;-55
2023/04/30 08:41:03;;;;;;;11.67;10.97;;;15.70;24.30;;;;;;5071610;28;20536;-54
2023/04/30 08:43:29;;;;;;;10.50;9.80;;;15.60;22.40;;;;;;5072739;28;20270;-55
2023/04/30 08:45:56;;;;;;;10.97;10.23;;;15.60;22.00;;;;;;5073181;28;20424;-55
2023/04/30 08:48:23;;;;;;;10.60;10.00;;;15.60;22.00;;;;;;5072651;28;20428;-55
2023/04/30 08:50:49;;;;;;;10.97;10.47;;;15.70;21.90;;;;;;5073777;28;20501;-54
2023/04/30 08:53:16;;;;;;;10.87;10.27;;;15.70;21.00;;;;;;5093419;28;20594;-53
2023/04/30 08:55:42;;;;;;;11.00;10.37;;;15.70;20.70;;;;;;5077465;28;20209;-53
2023/04/30 08:58:09;;;;;;;9.50;9.10;;;15.80;21.10;;;;;;5077106;28;20441;-54
2023/04/30 09:00:37;;;;;;;9.30;8.60;;;16.00;21.10;;;;;;5077866;28;20170;-55
2023/04/30 09:03:04;;;;;;;9.20;8.80;;;16.20;18.70;;;;;;5076520;28;20417;-53
2023/04/30 09:05:30;;;;;;;8.83;8.43;;;16.20;17.70;;;;;;5094318;28;20499;-52
2023/04/30 09:07:55;;;;;;;8.63;8.23;;;16.30;17.70;;;;;;5077898;28;20566;-54
2023/04/30 09:10:24;;;;;;;9.00;8.60;;;16.30;17.70;;;;;;5077601;28;20202;-54
2023/04/30 09:13:00;;;;;;;8.00;7.70;;;16.30;17.00;;;;;;5074279;28;20731;-54
2023/04/30 09:15:27;;;;;;;7.87;7.57;;;16.40;16.80;;;;;;5092361;28;20417;-53
2023/04/30 09:18:25;;;;;;;7.83;7.53;;;16.30;16.60;;;;;;5070811;28;20422;-52
2023/04/30 09:21:00;;;;;;;9.80;9.40;;;16.30;17.20;;;;;;5041231;28;20896;-53
2023/04/30 09:23:26;;;;;;;7.80;7.50;;;16.30;18.00;;;;;;5072560;28;20783;-54
2023/04/30 09:25:52;;;;;;;7.50;7.10;;;16.30;18.20;;;;;;5076754;28;20768;-52
2023/04/30 09:28:23;;;;;;;8.90;8.50;;;16.30;17.80;;;;;;5076503;28;20850;-52
2023/04/30 09:30:49;;;;;;;7.37;7.00;;;16.30;17.80;;;;;;5076252;28;20425;-53
2023/04/30 09:33:15;;;;;;;7.60;7.20;;;16.30;17.30;;;;;;5076480;28;20991;-52
2023/04/30 09:35:41;;;;;;;8.10;7.60;;;16.30;17.10;;;;;;5077049;28;20810;-52
2023/04/30 09:38:07;;;;;;;8.20;7.90;;;16.30;16.70;;;;;;5062116;28;20674;-52
2023/04/30 09:40:37;;;;;;;7.83;7.47;;;16.30;16.90;;;;;;5074899;28;20742;-52
2023/04/30 09:43:10;;;;;;;8.57;7.97;;;16.30;17.00;;;;;;5076468;28;20424;-53
2023/04/30 09:45:54;;;;;;;7.73;7.23;;;16.30;16.70;;;;;;5095149;28;20444;-53
2023/04/30 09:48:24;;;;;;;7.17;6.77;;;16.30;16.50;;;;;;5076098;28;20815;-48
2023/04/30 09:50:50;;;;;;;8.30;7.90;;;16.30;16.70;;;;;;5075710;28;20412;-48
2023/04/30 09:53:17;;;;;;;8.13;7.70;;;16.30;16.80;;;;;;5075838;28;20456;-50
2023/04/30 09:55:47;;;;;;;8.30;6.93;;;16.30;17.00;;;;;;5072608;28;20753;-48
2023/04/30 09:58:15;;;;;;;8.07;7.60;;;16.30;16.60;;;;;;5075633;28;20448;-50
2023/04/30 10:00:41;;;;;;;6.83;6.53;;;16.30;16.10;;;;;;5076074;28;20447;-52
2023/04/30 10:03:09;;;;;;;7.80;7.30;;;16.40;16.40;;;;;;5075275;28;20528;-51
2023/04/30 10:05:46;;;;;;;6.90;6.50;;;16.40;16.00;;;;;;5074077;28;20413;-49
2023/04/30 10:08:26;;;;;;;7.60;7.17;;;16.40;16.20;;;;;;5075203;28;20420;-53
2023/04/30 10:10:59;;;;;;;7.60;7.20;;;16.40;15.40;;;;;;5074880;28;20440;-50
2023/04/30 10:13:30;;;;;;;7.67;7.13;;;16.40;15.80;;;;;;5071302;28;20493;-51
2023/04/30 10:16:00;;;;;;;6.53;6.13;;;16.40;15.30;;;;;;5075069;28;20405;-50
2023/04/30 10:18:33;;;;;;;8.13;7.77;;;16.40;15.40;;;;;;5066837;28;20508;-50
2023/04/30 10:21:02;;;;;;;7.43;7.10;;;16.50;15.20;;;;;;5066700;28;20423;-51
2023/04/30 10:23:29;;;;;;;8.13;7.83;;;16.50;15.00;;;;;;5074921;28;20934;-51
2023/04/30 10:25:56;;;;;;;7.93;7.63;;;16.50;15.20;;;;;;5064125;28;20784;-48
2023/04/30 10:28:22;;;;;;;7.20;6.90;;;16.50;15.30;;;;;;5056068;28;20505;-49
2023/04/30 10:30:50;;;;;;;7.17;6.87;;;16.50;15.00;;;;;;5063180;28;20424;-49
2023/04/30 10:33:48;;;;;;;8.80;8.30;;;16.50;14.70;;;;;;5069547;28;20824;-51
2023/04/30 10:36:23;;;;;;;7.20;6.90;;;16.50;14.90;;;;;;5072328;28;20909;-50
2023/04/30 10:38:50;;;;;;;8.57;8.10;;;16.50;14.50;;;;;;5073676;28;20440;-51
2023/04/30 10:41:19;;;;;;;7.40;7.10;;;16.50;15.00;;;;;;5055652;28;20417;-52
2023/04/30 10:43:47;;;;;;;8.23;7.83;;;16.50;14.90;;;;;;5055735;28;20445;-52
2023/04/30 10:46:24;;;;;;;8.07;7.67;;;16.50;15.00;;;;;;5056053;28;20956;-50
2023/04/30 10:48:53;;;;;;;8.90;8.13;;;16.50;15.30;;;;;;5055350;28;20918;-52
2023/04/30 10:51:20;;;;;;;9.10;8.40;;;16.40;15.40;;;;;;5054726;28;20413;-49
2023/04/30 10:53:49;;;;;;;7.80;7.47;;;16.50;15.60;;;;;;5067284;28;20460;-50
2023/04/30 10:56:31;;;;;;;7.50;7.17;;;16.50;15.70;;;;;;5061937;28;20846;-52
2023/04/30 10:59:01;;;;;;;8.07;7.77;;;16.50;16.10;;;;;;5054635;28;20444;-50
2023/04/30 11:01:27;;;;;;;8.70;8.30;;;16.50;15.90;;;;;;5054946;28;20414;-52
2023/04/30 11:04:08;;;;;;;9.00;8.47;;;16.50;15.60;;;;;;5055348;28;20426;-53
2023/04/30 11:06:49;;;;;;;7.97;7.57;;;16.60;15.80;;;;;;5055190;28;20784;-51
2023/04/30 11:09:15;;;;;;;9.43;8.93;;;16.60;15.70;;;;;;5071980;28;20996;-48
2023/04/30 11:11:43;;;;;;;8.60;8.10;;;16.70;16.10;;;;;;5054961;28;20935;-48
2023/04/30 11:14:10;;;;;;;8.20;7.80;;;16.60;15.80;;;;;;5064682;28;20464;-49
2023/04/30 11:16:36;;;;;;;8.37;7.90;;;16.60;15.80;;;;;;5074410;28;20436;-53
2023/04/30 11:19:21;;;;;;;9.43;8.73;;;16.70;16.00;;;;;;5070078;28;20800;-49
2023/04/30 11:22:02;;;;;;;8.17;7.77;;;16.60;15.80;;;;;;5056151;28;20274;-52
2023/04/30 11:24:59;;;;;;;9.80;9.30;;;16.70;16.20;;;;;;5071738;28;20910;-50
2023/04/30 11:27:27;;;;;;;9.40;8.80;;;16.70;15.70;;;;;;5055395;28;20793;-49
2023/04/30 11:29:53;;;;;;;9.23;8.70;;;16.70;15.50;;;;;;5054832;28;20755;-57
2023/04/30 11:32:21;;;;;;;8.53;8.13;;;16.70;16.00;;;;;;5053715;28;20421;-57
2023/04/30 11:34:47;;;;;;;8.83;8.33;;;16.80;15.70;;;;;;5054300;28;20449;-60
2023/04/30 11:37:29;;;;;;;9.07;8.57;;;16.80;15.60;;;;;;5071592;28;20504;-56
2023/04/30 11:39:56;;;;;;;8.07;7.77;;;16.80;15.70;;;;;;5055277;28;20440;-54
2023/04/30 11:42:21;;;;;;;8.53;8.00;;;16.80;15.60;;;;;;5054295;28;20421;-56
2023/04/30 11:44:47;;;;;;;8.50;8.10;;;16.80;15.50;;;;;;5055924;28;20467;-56
2023/04/30 11:47:14;;;;;;;8.77;8.27;;;16.80;15.60;;;;;;5043420;28;20210;-47
2023/04/30 11:49:40;;;;;;;10.37;9.77;;;16.80;16.00;;;;;;5074321;28;20543;-53
2023/04/30 11:52:08;;;;;;;9.07;8.43;;;16.80;15.80;;;;;;5074116;28;20825;-53
2023/04/30 11:54:37;;;;;;;8.80;8.00;;;16.90;15.90;;;;;;5074403;28;20464;-61
2023/04/30 11:57:03;;;;;;;7.67;7.27;;;16.90;15.90;;;;;;5073480;28;20445;-60
2023/04/30 11:59:38;;;;;;;8.50;8.10;;;16.90;15.30;;;;;;5073402;28;20421;-61
2023/04/30 12:02:05;;;;;;;7.63;7.03;;;16.90;15.30;;;;;;5073072;28;20404;-61
2023/04/30 12:04:31;;;;;;;8.20;7.70;;;17.00;15.10;;;;;;5072832;28;20421;-53
2023/04/30 12:06:57;;;;;;;8.73;7.93;;;17.00;15.80;;;;;;5072822;28;20424;-54
2023/04/30 12:09:23;;;;;;;7.87;7.47;;;17.00;15.40;;;;;;5072952;28;20440;-52
2023/04/30 12:11:48;;;;;;;7.80;7.50;;;17.00;15.60;;;;;;5067624;28;20590;-55
2023/04/30 12:14:14;;;;;;;8.30;7.67;;;17.00;15.10;;;;;;5074225;28;20323;-53
2023/04/30 12:16:49;;;;;;;7.90;7.50;;;17.00;15.50;;;;;;5070479;28;20220;-54
2023/04/30 12:19:16;;;;;;;7.20;6.80;;;17.00;15.40;;;;;;5072661;28;20537;-52
2023/04/30 12:21:45;;;;;;;7.07;6.77;;;17.00;15.00;;;;;;5073238;28;20409;-53
2023/04/30 12:24:15;;;;;;;8.20;7.80;;;17.00;15.40;;;;;;5074475;28;20470;-53
2023/04/30 12:26:42;;;;;;;7.50;7.20;;;17.00;15.10;;;;;;5074085;28;20435;-52
2023/04/30 12:29:10;;;;;;;7.93;7.53;;;17.00;14.80;;;;;;5057598;28;20424;-47
2023/04/30 12:31:36;;;;;;;7.63;7.23;;;17.10;14.70;;;;;;5073574;28;20448;-49
2023/04/30 12:34:06;;;;;;;6.50;6.23;;;17.00;14.40;;;;;;5074131;28;20484;-49
2023/04/30 12:36:35;;;;;;;7.77;7.27;;;17.00;14.70;;;;;;5074367;28;20507;-48